createdAt,value
2023-04-21T00:01:59.777Z,10.20
2023-04-21T00:04:28.781Z,11.60
2023-04-21T00:06:57.208Z,10.80
2023-04-21T00:09:25.155Z,9.70
2023-04-21T00:11:53.096Z,10.60
2023-04-21T00:14:21.133Z,8.50
2023-04-21T00:16:52.827Z,11.30
2023-04-21T00:19:21.095Z,9.50
2023-04-21T00:21:49.269Z,10.80
2023-04-21T00:24:17.244Z,11.20
2023-04-21T00:26:45.323Z,8.10
2023-04-21T00:29:13.187Z,11.20
2023-04-21T00:31:41.219Z,12.20
2023-04-21T00:34:09.168Z,10.00
2023-04-21T00:36:37.134Z,9.50
2023-04-21T00:39:05.061Z,8.90
2023-04-21T00:41:33.286Z,13.30
2023-04-21T00:44:01.898Z,10.40
2023-04-21T00:46:30.115Z,13.60
2023-04-21T00:48:58.939Z,8.60
2023-04-21T00:51:28.344Z,11.50
2023-04-21T00:53:56.705Z,12.50
2023-04-21T00:56:24.895Z,13.30
2023-04-21T00:58:52.785Z,9.70
2023-04-21T01:01:22.777Z,15.90
2023-04-21T01:03:51.836Z,13.10
2023-04-21T01:06:19.779Z,10.20
2023-04-21T01:08:48.029Z,11.60
2023-04-21T01:11:17.356Z,12.70
2023-04-21T01:13:45.324Z,12.40
2023-04-21T01:16:23.375Z,9.70
2023-04-21T01:18:53.428Z,9.50
2023-04-21T01:21:22.063Z,11.80
2023-04-21T01:23:49.845Z,12.40
2023-04-21T01:26:20.095Z,11.70
2023-04-21T01:28:48.898Z,11.40
2023-04-21T01:31:17.152Z,9.90
2023-04-21T01:33:45.109Z,10.80
2023-04-21T01:36:13.150Z,9.20
2023-04-21T01:38:41.248Z,10.70
2023-04-21T01:41:09.475Z,13.00
2023-04-21T01:43:37.440Z,12.80
2023-04-21T01:46:06.017Z,11.00
2023-04-21T01:48:34.011Z,11.40
2023-04-21T01:51:01.869Z,8.80
2023-04-21T01:53:29.934Z,11.50
2023-04-21T01:55:57.857Z,11.20
2023-04-21T01:58:25.648Z,8.50
2023-04-21T02:00:53.740Z,11.10
2023-04-21T02:03:22.864Z,11.90
2023-04-21T02:05:51.134Z,9.90
2023-04-21T02:08:18.959Z,10.70
2023-04-21T02:10:49.252Z,11.50
2023-04-21T02:13:17.199Z,11.40
2023-04-21T02:15:45.084Z,9.60
2023-04-21T02:18:15.055Z,10.80
2023-04-21T02:20:43.023Z,10.90
2023-04-21T02:23:11.330Z,12.20
2023-04-21T02:25:39.265Z,11.10
2023-04-21T02:28:07.432Z,10.10
2023-04-21T02:30:35.771Z,8.30
2023-04-21T02:33:03.744Z,10.80
2023-04-21T02:35:33.814Z,11.50
2023-04-21T02:38:07.281Z,11.20
2023-04-21T02:40:35.283Z,10.80
2023-04-21T02:43:03.342Z,8.80
2023-04-21T02:45:32.582Z,12.40
2023-04-21T02:48:00.517Z,10.20
2023-04-21T02:50:31.241Z,8.90
2023-04-21T02:52:59.232Z,9.10
2023-04-21T02:55:27.272Z,9.60
2023-04-21T02:57:55.133Z,10.20
2023-04-21T03:00:23.815Z,10.80
2023-04-21T03:02:53.393Z,10.30
2023-04-21T03:05:21.666Z,11.00
2023-04-21T03:07:49.575Z,12.40
2023-04-21T03:10:17.932Z,11.50
2023-04-21T03:12:45.981Z,10.70
2023-04-21T03:15:14.619Z,10.60
2023-04-21T03:17:42.929Z,11.60
2023-04-21T03:20:12.027Z,7.60
2023-04-21T03:22:39.906Z,10.00
2023-04-21T03:25:08.155Z,9.70
2023-04-21T03:27:36.572Z,9.90
2023-04-21T03:30:06.808Z,13.10
2023-04-21T03:32:35.843Z,8.60
2023-04-21T03:35:04.513Z,15.20
2023-04-21T03:37:32.528Z,11.60
2023-04-21T03:40:01.405Z,10.50
2023-04-21T03:42:30.240Z,9.80
2023-04-21T03:45:02.782Z,12.60
2023-04-21T03:47:35.244Z,13.70
2023-04-21T03:50:04.902Z,13.50
2023-04-21T03:52:33.395Z,13.30
2023-04-21T03:55:01.493Z,16.20
2023-04-21T03:57:29.745Z,11.50
2023-04-21T03:59:57.819Z,10.10
2023-04-21T04:02:25.857Z,12.40
2023-04-21T04:04:53.968Z,10.70
2023-04-21T04:07:22.021Z,12.60
2023-04-21T04:09:49.909Z,12.70
2023-04-21T04:12:17.990Z,11.40
2023-04-21T04:14:46.043Z,12.30
2023-04-21T04:17:13.907Z,12.60
2023-04-21T04:19:41.782Z,12.40
2023-04-21T04:22:09.604Z,15.80
2023-04-21T04:24:37.626Z,15.80
2023-04-21T04:27:05.631Z,23.20
2023-04-21T04:29:35.049Z,25.10
2023-04-21T04:32:04.302Z,22.10
2023-04-21T04:34:32.736Z,18.40
2023-04-21T04:37:02.419Z,14.60
2023-04-21T04:39:32.000Z,13.60
2023-04-21T04:41:59.960Z,18.30
2023-04-21T04:44:28.229Z,16.90
2023-04-21T04:46:56.883Z,16.60
2023-04-21T04:49:24.858Z,15.20
2023-04-21T04:51:52.766Z,9.80
2023-04-21T04:57:20.827Z,10.90
2023-04-21T04:59:48.737Z,11.50
2023-04-21T05:02:16.994Z,11.30
2023-04-21T05:04:45.070Z,13.40
2023-04-21T05:07:13.111Z,13.80
2023-04-21T05:09:40.998Z,13.20
2023-04-21T05:12:09.673Z,12.30
2023-04-21T05:14:37.534Z,14.40
2023-04-21T05:17:05.451Z,20.70
2023-04-21T05:19:36.423Z,15.40
2023-04-21T05:22:06.514Z,12.40
2023-04-21T05:24:35.234Z,11.00
2023-04-21T05:27:03.266Z,11.90
2023-04-21T05:29:31.322Z,11.30
2023-04-21T05:31:59.266Z,13.20
2023-04-21T05:34:27.355Z,11.90
2023-04-21T05:36:55.420Z,10.90
2023-04-21T05:39:23.466Z,11.00
2023-04-21T05:41:51.306Z,11.70
2023-04-21T05:44:19.501Z,13.50
2023-04-21T05:46:47.578Z,11.10
2023-04-21T05:49:15.798Z,13.30
2023-04-21T05:51:43.577Z,11.00
2023-04-21T05:54:11.483Z,11.80
2023-04-21T05:56:39.467Z,11.40
2023-04-21T05:59:07.421Z,9.60
2023-04-21T06:01:36.084Z,10.30
2023-04-21T06:04:04.634Z,12.10
2023-04-21T06:06:32.919Z,12.50
2023-04-21T06:09:00.991Z,10.70
2023-04-21T06:11:29.054Z,14.20
2023-04-21T06:13:58.733Z,15.30
2023-04-21T06:16:27.310Z,10.40
2023-04-21T06:18:55.332Z,10.80
2023-04-21T06:21:23.215Z,13.30
2023-04-21T06:23:51.715Z,11.80
2023-04-21T06:26:19.837Z,11.80
2023-04-21T06:28:47.816Z,12.80
2023-04-21T06:31:16.085Z,9.80
2023-04-21T06:33:44.328Z,10.10
2023-04-21T06:36:12.374Z,11.50
2023-04-21T06:38:41.690Z,10.60
2023-04-21T06:41:10.091Z,9.90
2023-04-21T06:43:38.060Z,14.20
2023-04-21T06:46:06.039Z,11.30
2023-04-21T06:48:33.815Z,11.90
2023-04-21T06:51:02.797Z,9.90
2023-04-21T06:53:31.021Z,9.50
2023-04-21T06:55:59.234Z,11.20
2023-04-21T06:58:27.566Z,10.90
2023-04-21T07:00:55.817Z,12.10
2023-04-21T07:03:23.764Z,11.50
2023-04-21T07:05:51.791Z,11.90
2023-04-21T07:08:19.857Z,12.80
2023-04-21T07:10:47.829Z,9.10
2023-04-21T07:13:16.192Z,10.40
2023-04-21T07:15:44.135Z,9.40
2023-04-21T07:18:12.113Z,11.70
2023-04-21T07:20:40.033Z,10.60
2023-04-21T07:23:07.983Z,9.60
2023-04-21T07:25:36.706Z,12.10
2023-04-21T07:28:06.682Z,11.30
2023-04-21T07:30:34.579Z,9.30
2023-04-21T07:33:02.667Z,9.50
2023-04-21T07:35:31.062Z,10.90
2023-04-21T07:37:59.117Z,13.00
2023-04-21T07:40:27.153Z,15.90
2023-04-21T07:42:55.087Z,11.20
2023-04-21T07:45:23.133Z,9.50
2023-04-21T07:47:51.605Z,12.50
2023-04-21T07:50:19.661Z,9.40
2023-04-21T07:52:48.299Z,9.50
2023-04-21T07:55:16.210Z,9.40
2023-04-21T07:57:44.244Z,10.10
2023-04-21T08:00:13.149Z,11.00
2023-04-21T08:02:42.234Z,12.30
2023-04-21T08:05:10.527Z,9.90
2023-04-21T08:07:39.776Z,12.80
2023-04-21T08:10:08.940Z,9.20
2023-04-21T08:12:37.197Z,9.00
2023-04-21T08:15:08.355Z,10.30
2023-04-21T08:17:37.469Z,10.80
2023-04-21T08:20:06.366Z,10.50
2023-04-21T08:22:35.815Z,10.40
2023-04-21T08:25:04.892Z,9.80
2023-04-21T08:27:32.993Z,11.70
2023-04-21T08:30:00.999Z,12.80
2023-04-21T08:32:29.362Z,8.60
2023-04-21T08:34:57.402Z,8.90
2023-04-21T08:37:25.331Z,9.90
2023-04-21T08:39:54.545Z,10.50
2023-04-21T08:42:22.647Z,12.10
2023-04-21T08:44:51.022Z,7.80
2023-04-21T08:47:20.410Z,10.90
2023-04-21T08:50:35.873Z,10.70
2023-04-21T08:53:03.796Z,11.00
2023-04-21T08:55:32.479Z,11.90
2023-04-21T08:58:00.699Z,8.00
2023-04-21T09:00:28.640Z,10.70
2023-04-21T09:03:02.101Z,8.30
2023-04-21T09:05:32.682Z,7.60
2023-04-21T09:08:08.603Z,9.60
2023-04-21T09:10:46.663Z,8.90
2023-04-21T09:13:14.873Z,9.00
2023-04-21T09:15:44.801Z,9.40
2023-04-21T09:18:16.641Z,10.70
2023-04-21T09:20:45.590Z,9.60
2023-04-21T09:23:13.712Z,8.00
2023-04-21T09:25:42.588Z,7.30
2023-04-21T09:28:11.698Z,6.30
2023-04-21T09:30:40.728Z,8.10
2023-04-21T09:33:27.316Z,9.50
2023-04-21T09:36:02.081Z,6.30
2023-04-21T09:38:30.597Z,7.90
2023-04-21T09:40:59.067Z,6.20
2023-04-21T09:43:27.507Z,9.80
2023-04-21T09:45:55.461Z,8.60
2023-04-21T09:48:23.711Z,7.70
2023-04-21T09:51:22.763Z,7.90
2023-04-21T09:53:40.904Z,9.10
2023-04-21T09:56:11.890Z,8.20
2023-04-21T09:58:48.811Z,10.60
2023-04-21T10:01:16.812Z,7.10
2023-04-21T10:03:46.749Z,8.90
2023-04-21T10:06:15.421Z,6.30
2023-04-21T10:08:43.322Z,8.80
2023-04-21T10:11:11.811Z,9.70
2023-04-21T10:13:39.806Z,5.30
2023-04-21T10:16:11.243Z,7.40
2023-04-21T10:18:42.847Z,7.30
2023-04-21T10:21:12.263Z,8.20
2023-04-21T10:23:47.168Z,9.60
2023-04-21T10:26:34.619Z,8.90
2023-04-21T10:29:04.480Z,10.10
2023-04-21T10:31:36.570Z,6.30
2023-04-21T10:34:08.050Z,10.40
2023-04-21T10:37:06.278Z,6.80
2023-04-21T10:39:36.448Z,6.60
2023-04-21T10:42:13.832Z,6.40
2023-04-21T10:44:53.596Z,8.20
2023-04-21T10:47:51.481Z,5.80
2023-04-21T10:50:29.676Z,7.70
2023-04-21T10:52:59.339Z,8.60
2023-04-21T10:55:28.468Z,8.80
2023-04-21T10:57:56.407Z,7.40
2023-04-21T11:00:24.488Z,7.50
2023-04-21T11:02:54.316Z,9.50
2023-04-21T11:05:30.808Z,11.40
2023-04-21T11:08:03.932Z,8.70
2023-04-21T11:10:55.099Z,10.80
2023-04-21T11:13:25.898Z,8.70
2023-04-21T11:16:07.624Z,10.20
2023-04-21T11:18:43.003Z,10.30
2023-04-21T11:21:18.537Z,9.20
2023-04-21T11:23:54.353Z,9.00
2023-04-21T11:26:34.664Z,8.10
2023-04-21T11:29:07.537Z,13.30
2023-04-21T11:31:36.764Z,13.30
2023-04-21T11:34:05.462Z,10.70
2023-04-21T11:36:34.877Z,8.60
2023-04-21T11:39:10.315Z,10.60
2023-04-21T11:41:40.334Z,6.70
2023-04-21T11:44:09.135Z,9.80
2023-04-21T11:46:37.809Z,9.80
2023-04-21T11:49:07.242Z,8.10
2023-04-21T11:51:42.594Z,12.60
2023-04-21T11:54:12.286Z,11.00
2023-04-21T11:56:46.270Z,8.70
2023-04-21T11:59:25.423Z,8.90
2023-04-21T12:01:54.449Z,8.90
2023-04-21T12:04:23.710Z,10.60
2023-04-21T12:06:59.480Z,10.10
2023-04-21T12:09:27.682Z,11.00
2023-04-21T12:11:57.698Z,9.50
2023-04-21T12:14:27.092Z,11.10
2023-04-21T12:16:56.347Z,12.20
2023-04-21T12:19:40.287Z,9.60
2023-04-21T12:22:09.576Z,9.90
2023-04-21T12:24:37.753Z,7.60
2023-04-21T12:27:06.425Z,9.00
2023-04-21T12:29:38.679Z,10.30
2023-04-21T12:32:07.052Z,10.00
2023-04-21T12:34:35.605Z,10.30
2023-04-21T12:37:03.756Z,15.00
2023-04-21T12:39:32.270Z,10.00
2023-04-21T12:42:01.697Z,11.20
2023-04-21T12:44:29.713Z,12.60
2023-04-21T12:46:57.910Z,9.40
2023-04-21T12:49:25.870Z,11.20
2023-04-21T12:51:53.683Z,10.70
2023-04-21T12:54:21.526Z,10.30
2023-04-21T12:56:49.532Z,11.80
2023-04-21T12:59:17.314Z,10.60
2023-04-21T13:01:45.266Z,11.20
2023-04-21T13:04:13.527Z,13.20
2023-04-21T13:06:42.020Z,10.40
2023-04-21T13:09:09.945Z,9.50
2023-04-21T13:11:37.950Z,9.80
2023-04-21T13:14:05.892Z,8.10
2023-04-21T13:16:33.737Z,10.90
2023-04-21T13:19:01.732Z,11.60
2023-04-21T13:21:29.712Z,10.50
2023-04-21T13:23:58.315Z,13.40
2023-04-21T13:26:27.162Z,12.30
2023-04-21T13:28:54.986Z,11.70
2023-04-21T13:31:22.885Z,8.90
2023-04-21T13:33:53.033Z,11.20
2023-04-21T13:36:21.913Z,11.80
2023-04-21T13:38:51.218Z,12.70
2023-04-21T13:41:19.058Z,11.00
2023-04-21T13:43:47.122Z,9.70
2023-04-21T13:46:14.994Z,12.80
2023-04-21T13:48:44.796Z,12.50
2023-04-21T13:51:13.036Z,16.50
2023-04-21T13:53:41.259Z,9.90
2023-04-21T13:56:10.271Z,10.50
2023-04-21T13:58:38.077Z,10.90
2023-04-21T14:01:06.123Z,11.80
2023-04-21T14:03:34.666Z,15.30
2023-04-21T14:06:02.922Z,11.10
2023-04-21T14:08:30.863Z,12.60
2023-04-21T14:10:58.792Z,10.20
2023-04-21T14:16:01.953Z,9.90
2023-04-21T14:18:30.123Z,12.70
2023-04-21T14:20:58.148Z,14.50
2023-04-21T14:23:26.175Z,8.80
2023-04-21T14:25:55.046Z,11.30
2023-04-21T14:28:23.450Z,9.80
2023-04-21T14:30:51.271Z,11.20
2023-04-21T14:33:19.329Z,13.80
2023-04-21T14:35:47.259Z,10.50
2023-04-21T14:38:15.232Z,11.10
2023-04-21T14:40:43.229Z,11.10
2023-04-21T14:43:11.694Z,12.20
2023-04-21T14:45:41.202Z,9.90
2023-04-21T14:48:09.583Z,10.90
2023-04-21T14:50:37.857Z,9.90
2023-04-21T14:53:06.927Z,13.30
2023-04-21T14:55:35.749Z,13.80
2023-04-21T14:58:03.949Z,10.60
2023-04-21T15:00:32.181Z,13.90
2023-04-21T15:03:00.668Z,12.10
2023-04-21T15:05:29.315Z,11.60
2023-04-21T15:07:57.454Z,11.60
2023-04-21T15:10:25.668Z,10.70
2023-04-21T15:12:53.837Z,11.70
2023-04-21T15:15:21.731Z,9.80
2023-04-21T15:17:49.985Z,9.60
2023-04-21T15:20:18.797Z,10.40
2023-04-21T15:22:47.607Z,13.90
2023-04-21T15:25:15.626Z,9.40
2023-04-21T15:27:43.532Z,12.80
2023-04-21T15:30:12.528Z,15.20
2023-04-21T15:32:40.871Z,12.80
2023-04-21T15:35:08.856Z,9.50
2023-04-21T15:37:37.014Z,9.00
2023-04-21T15:40:06.079Z,12.30
2023-04-21T15:42:34.297Z,11.30
2023-04-21T15:45:04.105Z,14.20
2023-04-21T15:47:32.167Z,12.70
2023-04-21T15:50:00.339Z,13.60
2023-04-21T15:52:28.527Z,12.20
2023-04-21T15:54:56.679Z,10.70
2023-04-21T15:57:28.492Z,10.50
2023-04-21T15:59:56.539Z,11.50
2023-04-21T16:02:24.705Z,11.90
2023-04-21T16:04:53.282Z,10.60
2023-04-21T16:07:21.953Z,12.50
2023-04-21T16:09:49.951Z,13.30
2023-04-21T16:12:17.762Z,12.70
2023-04-21T16:14:55.837Z,12.80
2023-04-21T16:17:27.655Z,12.60
2023-04-21T16:19:55.656Z,9.60
2023-04-21T16:22:23.623Z,8.90
2023-04-21T16:24:53.263Z,12.50
2023-04-21T16:27:21.100Z,9.10
2023-04-21T16:29:50.445Z,11.20
2023-04-21T16:32:18.608Z,11.60
2023-04-21T16:34:46.831Z,9.30
2023-04-21T16:37:14.793Z,12.10
2023-04-21T16:39:43.057Z,11.60
2023-04-21T16:42:11.125Z,12.10
2023-04-21T16:44:39.351Z,11.70
2023-04-21T16:47:07.591Z,13.30
2023-04-21T16:49:36.291Z,24.30
2023-04-21T16:52:04.335Z,44.00
2023-04-21T16:54:32.190Z,52.70
2023-04-21T16:57:00.040Z,19.20
2023-04-21T16:59:27.922Z,12.30
2023-04-21T17:01:56.485Z,11.20
2023-04-21T17:04:24.595Z,10.90
2023-04-21T17:06:52.749Z,9.20
2023-04-21T17:09:20.708Z,12.10
2023-04-21T17:11:48.676Z,12.50
2023-04-21T17:14:16.548Z,10.60
2023-04-21T17:16:44.409Z,12.00
2023-04-21T17:19:12.407Z,12.30
2023-04-21T17:21:40.198Z,15.00
2023-04-21T17:24:08.209Z,12.10
2023-04-21T17:26:36.188Z,10.40
2023-04-21T17:29:05.132Z,11.00
2023-04-21T17:31:33.129Z,11.80
2023-04-21T17:34:01.516Z,11.00
2023-04-21T17:36:29.947Z,11.20
2023-04-21T17:38:58.684Z,9.70
2023-04-21T17:41:26.612Z,9.20
2023-04-21T17:43:57.414Z,9.80
2023-04-21T17:46:26.461Z,12.10
2023-04-21T17:48:54.358Z,16.30
2023-04-21T17:51:22.284Z,12.10
2023-04-21T17:53:50.490Z,10.00
2023-04-21T17:56:19.083Z,12.90
2023-04-21T17:58:47.025Z,12.20
2023-04-21T18:01:15.098Z,13.50
2023-04-21T18:03:43.329Z,27.80
2023-04-21T18:06:11.877Z,31.30
2023-04-21T18:08:40.747Z,33.20
2023-04-21T18:11:09.219Z,33.50
2023-04-21T18:13:37.252Z,25.40
2023-04-21T18:16:05.340Z,24.10
2023-04-21T18:18:33.366Z,18.20
2023-04-21T18:21:01.203Z,13.30
2023-04-21T18:23:29.120Z,12.00
2023-04-21T18:25:57.099Z,14.70
2023-04-21T18:28:25.420Z,13.80
2023-04-21T18:30:53.554Z,12.10
2023-04-21T18:33:21.399Z,11.60
2023-04-21T18:35:49.446Z,11.70
2023-04-21T18:38:17.335Z,13.10
2023-04-21T18:40:45.202Z,13.00
2023-04-21T18:43:14.987Z,10.30
2023-04-21T18:45:43.096Z,9.70
2023-04-21T18:48:11.121Z,10.20
2023-04-21T18:50:40.721Z,11.50
2023-04-21T18:53:09.073Z,12.90
2023-04-21T18:55:37.716Z,13.50
2023-04-21T18:58:06.172Z,13.20
2023-04-21T19:00:37.434Z,12.70
2023-04-21T19:03:06.274Z,13.80
2023-04-21T19:05:36.789Z,13.80
2023-04-21T19:08:05.308Z,16.90
2023-04-21T19:10:37.988Z,16.80
2023-04-21T19:13:05.904Z,16.90
2023-04-21T19:15:33.906Z,17.90
2023-04-21T19:18:01.980Z,18.10
2023-04-21T19:20:30.649Z,17.60
2023-04-21T19:22:59.030Z,17.70
2023-04-21T19:25:27.068Z,18.00
2023-04-21T19:27:55.020Z,17.10
2023-04-21T19:30:22.945Z,17.00
2023-04-21T19:32:50.800Z,22.50
2023-04-21T19:35:18.890Z,18.60
2023-04-21T19:37:47.232Z,20.60
2023-04-21T19:40:15.450Z,23.20
2023-04-21T19:42:43.414Z,20.20
2023-04-21T19:45:11.482Z,18.20
2023-04-21T19:47:39.515Z,14.80
2023-04-21T19:50:08.538Z,16.90
2023-04-21T19:52:36.727Z,18.30
2023-04-21T19:55:05.258Z,15.30
2023-04-21T19:57:33.116Z,16.10
2023-04-21T20:00:01.082Z,20.50
2023-04-21T20:02:29.710Z,20.00
2023-04-21T20:04:57.815Z,21.20
2023-04-21T20:07:26.004Z,18.60
2023-04-21T20:09:53.881Z,19.00
2023-04-21T20:12:21.725Z,19.70
2023-04-21T20:14:49.710Z,16.10
2023-04-21T20:17:17.561Z,18.50
2023-04-21T20:19:46.875Z,20.20
2023-04-21T20:22:14.882Z,18.40
2023-04-21T20:24:42.865Z,24.20
2023-04-21T20:27:10.831Z,21.20
2023-04-21T20:29:39.027Z,19.70
2023-04-21T20:32:07.397Z,17.00
2023-04-21T20:34:36.225Z,19.70
2023-04-21T20:37:05.309Z,14.90
2023-04-21T20:39:33.144Z,17.30
2023-04-21T20:42:11.924Z,17.80
2023-04-21T20:44:43.028Z,19.00
2023-04-21T20:47:11.627Z,17.50
2023-04-21T20:49:39.977Z,17.40
2023-04-21T20:52:08.882Z,15.00
2023-04-21T20:54:38.231Z,14.90
2023-04-21T20:57:07.648Z,14.80
2023-04-21T20:59:35.925Z,15.20
2023-04-21T21:02:04.349Z,13.80
2023-04-21T21:04:32.963Z,14.30
2023-04-21T21:08:37.835Z,19.40
2023-04-21T21:11:06.504Z,16.30
2023-04-21T21:13:35.565Z,15.80
2023-04-21T21:16:03.430Z,17.50
2023-04-21T21:18:34.595Z,16.50
2023-04-21T21:21:02.578Z,15.10
2023-04-21T21:23:32.893Z,15.00
2023-04-21T21:26:00.726Z,17.90
2023-04-21T21:28:30.613Z,13.20
2023-04-21T21:30:58.373Z,16.40
2023-04-21T21:33:26.494Z,15.60
2023-04-21T21:35:54.284Z,15.70
2023-04-21T21:38:22.196Z,16.60
2023-04-21T21:40:50.203Z,12.90
2023-04-21T21:43:18.369Z,15.40
2023-04-21T21:45:46.261Z,13.90
2023-04-21T21:48:16.706Z,16.40
2023-04-21T21:50:44.694Z,17.30
2023-04-21T21:53:12.665Z,15.90
2023-04-21T21:55:40.557Z,16.00
2023-04-21T21:58:08.600Z,16.90
2023-04-21T22:00:39.053Z,14.50
2023-04-21T22:03:07.552Z,16.90
2023-04-21T22:05:36.010Z,14.70
2023-04-21T22:08:04.176Z,13.50
2023-04-21T22:10:32.583Z,15.10
2023-04-21T22:13:00.863Z,14.20
2023-04-21T22:15:28.883Z,13.00
2023-04-21T22:17:56.777Z,14.00
2023-04-21T22:20:27.002Z,14.50
2023-04-21T22:22:54.860Z,16.40
2023-04-21T22:25:26.938Z,16.50
2023-04-21T22:27:55.718Z,16.70
2023-04-21T22:30:23.653Z,15.50
2023-04-21T22:32:51.553Z,17.30
2023-04-21T22:35:19.779Z,13.90
2023-04-21T22:37:47.671Z,15.10
2023-04-21T22:40:15.615Z,16.30
2023-04-21T22:42:43.600Z,15.20
2023-04-21T22:45:11.597Z,15.10
2023-04-21T22:47:39.429Z,13.90
2023-04-21T22:50:09.344Z,17.00
2023-04-21T22:52:37.739Z,14.40
2023-04-21T22:55:06.341Z,20.80
2023-04-21T22:57:37.261Z,15.90
2023-04-21T23:00:06.491Z,15.70
2023-04-21T23:02:34.499Z,14.60
2023-04-21T23:05:02.880Z,16.50
2023-04-21T23:07:31.710Z,16.20
2023-04-21T23:10:00.004Z,13.80
2023-04-21T23:12:28.200Z,14.00
2023-04-21T23:14:56.222Z,15.20
2023-04-21T23:17:24.444Z,16.70
2023-04-21T23:19:52.550Z,15.40
2023-04-21T23:22:20.839Z,15.40
2023-04-21T23:24:48.690Z,15.30
2023-04-21T23:27:16.784Z,13.30
2023-04-21T23:29:44.746Z,15.60
2023-04-21T23:32:12.694Z,15.50
2023-04-21T23:34:40.680Z,15.10
2023-04-21T23:37:08.684Z,17.00
2023-04-21T23:39:36.699Z,14.60
2023-04-21T23:42:04.865Z,15.50
2023-04-21T23:44:32.764Z,13.90
2023-04-21T23:47:01.374Z,13.90
2023-04-21T23:49:29.441Z,16.40
2023-04-21T23:51:57.440Z,15.80
2023-04-21T23:54:25.578Z,13.20
2023-04-21T23:56:53.454Z,15.20
2023-04-21T23:59:21.465Z,14.30
